Flight Track Log - Related Links

Times and Time Zones

All times are in EST time to prevent confusion due to time zone crossing. See the N2299W flight status page for this flight to view local times or setup timezone preferences in your user account.

Time Position Orientation Groundspeed Altitude Reporting Facility
EST Latitude Longitude Course Direction KTS MPH feet Rate Location/Type
Tue 01:43:34 PM 28.0167 -82.3333 360° North 84 97 100  Level Tampa TRACON
Tue 01:44:46 PM 28.0333 -82.3333 360° North 74 85 800 565 Climbing Tampa TRACON
Tue 01:45:52 PM 28.0500 -82.3167 41° Northeast 69 79 1,400 524 Climbing Tampa TRACON
Tue 01:46:52 PM 28.0667 -82.3000 41° Northeast 76 87 1,900 500 Climbing Tampa TRACON
Tue 01:47:52 PM 28.1000 -82.3000 360° North 73 84 2,400 474 Climbing Tampa TRACON
Tue 01:48:46 PM 28.1167 -82.3000 360° North 87 100 2,800 400 Climbing Tampa TRACON
Tue 01:49:52 PM 28.1333 -82.3000 360° North 80 92 3,200 333 Climbing Tampa TRACON
Tue 01:50:52 PM 28.1667 -82.3000 360° North 81 93 3,500 397 Climbing Tampa TRACON
Tue 01:51:53 PM 28.1833 -82.3000 360° North 71 82 4,000 347 Climbing Tampa TRACON
Tue 01:52:53 PM 28.2000 -82.2833 41° Northeast 90 104 4,200  Climbing Tampa TRACON
Tue 01:53:53 PM 28.2333 -82.2833 360° North 112 129 4,000 -95 Descending Tampa TRACON
Tue 01:54:59 PM 28.2667 -82.2833 360° North 110 127 4,000 -48 Level Tampa TRACON
Tue 01:55:59 PM 28.3000 -82.2833 360° North 108 124 3,900  Descending Tampa TRACON
Tue 01:56:53 PM 28.3167 -82.2833 360° North 105 121 4,000 105 Climbing Tampa TRACON
Tue 01:57:53 PM 28.3500 -82.2833 360° North 101 116 4,100  Climbing Tampa TRACON
Tue 01:58:59 PM 28.3833 -82.2833 360° North 101 116 4,000  Descending Tampa TRACON
Tue 01:59:53 PM 28.4000 -82.2833 360° North 103 119 4,100 53 Climbing Tampa TRACON
Tue 02:00:53 PM 28.4333 -82.2833 360° North 101 116 4,100 -53 Level Tampa TRACON
Tue 02:01:47 PM 28.4667 -82.2667 24° Northeast 101 116 4,000  Descending Tampa TRACON
Tue 02:02:47 PM 28.4833 -82.2667 360° North 106 122 4,100  Climbing Tampa TRACON
Tue 02:03:47 PM 28.5167 -82.2667 360° North 105 121 4,000 31 Descending Tampa TRACON
Tue 02:06:00 PM 28.5803 -82.2708 357° North 105 121 4,200 31 Climbing Jacksonville Center
Tue 02:07:01 PM 28.6117 -82.2683 North 105 121 4,100 -98 Descending Jacksonville Center
Tue 02:08:02 PM 28.6408 -82.2586 16° North 99 114 4,000  Descending Jacksonville Center
Tue 02:09:03 PM 28.6681 -82.2561 North 100 115 4,100  Climbing Jacksonville Center
Tue 02:09:58 PM 28.6931 -82.2678 338° Northwest 107 123 4,000 -52 Descending Jacksonville Center
Tue 02:10:59 PM 28.7244 -82.2653 North 103 119 4,000  Level Jacksonville Center
Tue 02:11:59 PM 28.7514 -82.2675 356° North 101 116 4,000  Level Jacksonville Center
Tue 02:12:54 PM 28.7786 -82.2672 North 103 119 4,000 45 Level Jacksonville Center
Tue 02:14:13 PM 28.8161 -82.2669 360° North 105 121 4,100 86 Climbing Jacksonville Center
Tue 02:15:14 PM 28.8456 -82.2667 360° North 104 120 4,200  Climbing Jacksonville Center
Tue 02:16:09 PM 28.8706 -82.2667 360° North 101 116 4,100 -103 Descending Jacksonville Center
Tue 02:17:10 PM 28.8997 -82.2642 North 104 120 4,000  Descending Jacksonville Center
Tue 02:18:05 PM 28.9269 -82.2664 356° North 109 125 4,100 52 Climbing Jacksonville Center
Tue 02:19:06 PM 28.9581 -82.2686 356° North 110 127 4,100  Level Jacksonville Center
Tue 02:20:13 PM 28.9917 -82.2706 357° North 107 123 4,100  Level Jacksonville Center
Tue 02:21:07 PM 29.0186 -82.2681 North 106 122 4,100  Level Jacksonville Center
Tue 02:22:14 PM 29.0519 -82.2678 360° North 105 121 4,100  Level Jacksonville Center
Tue 02:23:03 PM 29.0772 -82.2653 North 105 121 4,100  Level Jacksonville Center
Tue 02:24:04 PM 29.1083 -82.2700 352° North 107 123 4,100  Level Jacksonville Center
Tue 02:25:05 PM 29.1356 -82.2697 North 105 121 4,100 49 Level Jacksonville Center
Tue 02:26:06 PM 29.1647 -82.2672 North 99 114 4,200  Climbing Jacksonville Center
Tue 02:27:07 PM 29.1919 -82.2694 356° North 105 121 4,100 -94 Descending Jacksonville Center
Tue 02:28:14 PM 29.2275 -82.2667 North 109 125 4,000 -52 Descending Jacksonville Center
Tue 02:29:03 PM 29.2525 -82.2689 356° North 110 127 4,000  Level Jacksonville Center
Tue 02:30:10 PM 29.2858 -82.2711 357° North 106 122 4,000 47 Level Jacksonville Center
Tue 02:31:11 PM 29.3131 -82.2758 351° North 100 115 4,100  Climbing Jacksonville Center
Tue 02:32:12 PM 29.3422 -82.2731 North 102 117 4,000 49 Descending Jacksonville Center
Tue 02:33:13 PM 29.3694 -82.2706 North 98 113 4,200  Climbing Jacksonville Center
Tue 02:34:14 PM 29.3986 -82.2706 360° North 108 124 4,000 -50 Descending Jacksonville Center
Tue 02:35:14 PM 29.4300 -82.2703 360° North 102 117 4,100  Climbing Jacksonville Center
Tue 02:36:21 PM 29.4611 -82.2700 360° North 104 120 4,000 -47 Descending Jacksonville Center
Tue 02:37:22 PM 29.4925 -82.2722 356° North 110 127 4,000 49 Level Jacksonville Center
Tue 02:38:23 PM 29.5239 -82.2744 356° North 108 124 4,100 49 Climbing Jacksonville Center
Tue 02:39:24 PM 29.5553 -82.2742 360° North 109 125 4,100  Level Jacksonville Center
Tue 02:40:25 PM 29.5864 -82.2739 360° North 112 129 4,100 -49 Level Jacksonville Center
Tue 02:41:26 PM 29.6158 -82.2739 360° North 111 128 4,000 -49 Descending Jacksonville Center
Tue 02:42:27 PM 29.6469 -82.2761 356° North 109 125 4,000  Level Jacksonville Center
Tue 02:43:28 PM 29.6783 -82.2758 360° North 113 130 4,000  Level Jacksonville Center
Tue 02:44:29 PM 29.7097 -82.2756 360° North 109 125 4,000 50 Level Jacksonville Center
Tue 02:45:29 PM 29.7389 -82.2683 12° North 106 122 4,100  Climbing Jacksonville Center
Tue 02:46:30 PM 29.7681 -82.2608 13° North 104 120 4,000  Descending Jacksonville Center
Tue 02:47:31 PM 29.7950 -82.2464 25° Northeast 100 115 4,100  Climbing Jacksonville Center
Tue 02:48:32 PM 29.8222 -82.2389 13° North 105 121 4,000 -49 Descending Jacksonville Center
Tue 02:49:33 PM 29.8494 -82.2317 13° North 104 120 4,000 -49 Level Jacksonville Center
Tue 02:50:34 PM 29.8786 -82.2219 16° North 98 113 3,900  Descending Jacksonville Center
Tue 02:51:35 PM 29.9036 -82.2144 15° North 97 112 4,000 49 Climbing Jacksonville Center
Tue 02:52:36 PM 29.9264 -82.2000 29° Northeast 88 101 4,000  Level Jacksonville Center
Tue 02:53:37 PM 29.9492 -82.1856 29° Northeast 94 108 4,000 -47 Level Jacksonville Center
Tue 02:54:44 PM 29.9742 -82.1661 34° Northeast 92 106 3,900 -281 Descending Jacksonville Center
Tue 02:55:45 PM 29.9844 -82.1467 59° Northeast 77 89 3,400 -541 Descending Jacksonville Center
Tue 02:56:46 PM 30.0011 -82.1275 45° Northeast 82 94 2,800 -541 Descending Jacksonville Center
Tue 02:57:47 PM 30.0178 -82.1106 41° Northeast 78 90 2,300 -310 Descending Jacksonville Center
Tue 02:58:42 PM 30.0322 -82.0936 45° Northeast 72 83 2,200 -148 Descending Jacksonville Center
Tue 02:59:49 PM 30.0383 -82.0697 74° East 67 77 2,000 -94 Descending Jacksonville Center
Tue 03:00:50 PM 30.0467 -82.0528 60° Northeast 60 69 2,000 52 Level Jacksonville Center
Tue 03:01:45 PM 30.0444 -82.0336 98° East 66 76 2,100 52 Climbing Jacksonville Center
Tue 03:02:46 PM 30.0464 -82.0144 83° East 59 68 2,100 -49 Level Jacksonville Center
Tue 03:03:47 PM 30.0544 -81.9928 67° East 71 82 2,000 49 Descending Jacksonville Center
Tue 03:04:48 PM 30.0544 -81.9686 90° East 78 90 2,200 98 Climbing Jacksonville Center
Tue 03:05:49 PM 30.0542 -81.9422 91° East 81 93 2,200 -90 Level Jacksonville Center
Tue 03:07:02 PM 30.0539 -81.9111 91° East 84 97 2,000 -148 Descending Jacksonville Center
Tue 03:07:51 PM 30.0558 -81.8919 83° East 79 91 1,900 -55 Descending Jacksonville Center
Tue 03:08:52 PM 30.0706 -81.8822 30° Northeast 78 90 1,900 -141 Level Jacksonville Center
Tue 03:09:59 PM 30.0933 -81.8747 16° North 79 91 1,600 -47 Descending Jacksonville Center
Tue 03:11:00 PM 30.1122 -81.8769 354° North 74 85 1,800 -94 Climbing Jacksonville Center
Tue 03:12:07 PM 30.1331 -81.8767 North 67 77 1,400 -440 Descending Jacksonville Center
Tue 03:12:49 PM 30.1478 -81.8764 North 88 101 1,000 -470 Descending Jacksonville Center
Tue 03:14:02 PM 30.1789 -81.8761 360° North 90 104 500 -411 Descending Jacksonville Center
Tue 03:16:00 PM 30.2167 -81.8667 79° East  Level FlightAware Approximate
Tue 03:23:00 PM 30.2188 -81.8772 79° East  Level Estimated
Tue 03:24:00 PM 30.2188 -81.8772 79° East  Level Estimated
Tue 03:25:00 PM 30.2188 -81.8772 79° East  Level Estimated
Tue 03:26:00 PM 30.2188 -81.8772 79° East  Level Estimated
Tue 03:27:00 PM 30.2188 -81.8772 79° East  Level Estimated
Tue 03:28:00 PM 30.2188 -81.8772 79° East  Level Estimated
Tue 03:29:00 PM 30.2188 -81.8772 79° East  Level Estimated
Tue 03:30:00 PM 30.2188 -81.8772 79° East  Level Estimated
Tue 03:31:00 PM 30.2188 -81.8772 79° East  Level Estimated
Tue 03:32:00 PM 30.2188 -81.8772 79° East  Level Estimated
Tue 03:33:00 PM 30.2188 -81.8772 79° East  Level Estimated
Tue 03:34:00 PM 30.2188 -81.8772 79° East  Level Estimated
Tue 03:35:00 PM 30.2188 -81.8772 79° East  Level Estimated
Tue 03:36:00 PM 30.2188 -81.8772 79° East  Level Estimated
Tue 03:37:00 PM 30.2188 -81.8772 79° East  Level Estimated
Tue 03:38:00 PM 30.2188 -81.8772 79° East  Level Estimated
Tue 03:39:00 PM 30.2188 -81.8772 79° East  Level Estimated
Tue 03:40:00 PM 30.2188 -81.8772 79° East  Level Estimated
Tue 03:41:00 PM 30.2188 -81.8772 79° East  Level Estimated
Tue 03:42:00 PM 30.2188 -81.8772 79° East  Level Estimated
Tue 03:43:00 PM 30.2188 -81.8772 79° East  Level Estimated
Tue 03:44:00 PM 30.2188 -81.8772 79° East  Level Estimated

Login

Don't have an account? Register now (free) for customized features, flight alerts, and more!